sensor_id;sensor_type;location;lat;lon;timestamp;P1;durP1;ratioP1;P2;durP2;ratioP2
15812;SDS011;8007;51.404;6.304;2022-12-07T00:01:33;31.03;;;18.97;;
15812;SDS011;8007;51.404;6.304;2022-12-07T00:03:41;34.73;;;18.83;;
15812;SDS011;8007;51.404;6.304;2022-12-07T00:05:45;30.50;;;19.33;;
15812;SDS011;8007;51.404;6.304;2022-12-07T00:07:48;29.50;;;19.23;;
15812;SDS011;8007;51.404;6.304;2022-12-07T00:09:55;33.93;;;19.73;;
15812;SDS011;8007;51.404;6.304;2022-12-07T00:11:58;30.80;;;19.43;;
15812;SDS011;8007;51.404;6.304;2022-12-07T00:14:02;30.77;;;18.80;;
15812;SDS011;8007;51.404;6.304;2022-12-07T00:16:16;31.93;;;19.37;;
15812;SDS011;8007;51.404;6.304;2022-12-07T00:18:20;30.47;;;19.53;;
15812;SDS011;8007;51.404;6.304;2022-12-07T00:20:30;31.93;;;18.97;;
15812;SDS011;8007;51.404;6.304;2022-12-07T00:22:34;36.40;;;20.33;;
15812;SDS011;8007;51.404;6.304;2022-12-07T00:24:36;33.13;;;19.60;;
15812;SDS011;8007;51.404;6.304;2022-12-07T00:26:43;31.37;;;19.47;;
15812;SDS011;8007;51.404;6.304;2022-12-07T00:28:46;32.33;;;19.57;;
15812;SDS011;8007;51.404;6.304;2022-12-07T00:30:59;38.27;;;19.80;;
15812;SDS011;8007;51.404;6.304;2022-12-07T00:33:07;31.17;;;20.03;;
15812;SDS011;8007;51.404;6.304;2022-12-07T00:35:18;33.20;;;20.00;;
15812;SDS011;8007;51.404;6.304;2022-12-07T00:37:22;37.73;;;21.03;;
15812;SDS011;8007;51.404;6.304;2022-12-07T00:39:28;35.33;;;19.83;;
15812;SDS011;8007;51.404;6.304;2022-12-07T00:41:32;31.53;;;19.77;;
15812;SDS011;8007;51.404;6.304;2022-12-07T00:43:46;36.10;;;20.57;;
15812;SDS011;8007;51.404;6.304;2022-12-07T00:45:50;33.37;;;20.47;;
15812;SDS011;8007;51.404;6.304;2022-12-07T00:47:52;35.23;;;20.30;;
15812;SDS011;8007;51.404;6.304;2022-12-07T00:49:55;33.23;;;20.70;;
15812;SDS011;8007;51.404;6.304;2022-12-07T00:51:59;33.43;;;19.77;;
15812;SDS011;8007;51.404;6.304;2022-12-07T00:54:04;34.33;;;21.23;;
15812;SDS011;8007;51.404;6.304;2022-12-07T00:56:08;36.67;;;20.60;;
15812;SDS011;8007;51.404;6.304;2022-12-07T00:58:13;38.83;;;21.43;;
15812;SDS011;8007;51.404;6.304;2022-12-07T01:00:32;35.43;;;20.57;;
15812;SDS011;8007;51.404;6.304;2022-12-07T01:02:38;37.17;;;21.47;;
15812;SDS011;8007;51.404;6.304;2022-12-07T01:04:42;33.87;;;20.50;;
15812;SDS011;8007;51.404;6.304;2022-12-07T01:06:46;36.67;;;20.73;;
15812;SDS011;8007;51.404;6.304;2022-12-07T01:08:48;35.83;;;21.23;;
15812;SDS011;8007;51.404;6.304;2022-12-07T01:10:58;31.17;;;20.00;;
15812;SDS011;8007;51.404;6.304;2022-12-07T01:13:14;35.17;;;20.53;;
15812;SDS011;8007;51.404;6.304;2022-12-07T01:15:18;38.50;;;20.97;;
15812;SDS011;8007;51.404;6.304;2022-12-07T01:17:22;36.47;;;20.53;;
15812;SDS011;8007;51.404;6.304;2022-12-07T01:19:24;37.43;;;21.43;;
15812;SDS011;8007;51.404;6.304;2022-12-07T01:21:28;36.63;;;20.67;;
15812;SDS011;8007;51.404;6.304;2022-12-07T01:23:40;36.13;;;20.47;;
15812;SDS011;8007;51.404;6.304;2022-12-07T01:26:08;44.43;;;21.13;;
15812;SDS011;8007;51.404;6.304;2022-12-07T01:28:15;36.97;;;21.40;;
15812;SDS011;8007;51.404;6.304;2022-12-07T01:30:21;37.83;;;21.50;;
15812;SDS011;8007;51.404;6.304;2022-12-07T01:32:24;34.03;;;20.80;;
15812;SDS011;8007;51.404;6.304;2022-12-07T01:34:27;37.90;;;21.30;;
15812;SDS011;8007;51.404;6.304;2022-12-07T01:36:30;36.20;;;20.93;;
15812;SDS011;8007;51.404;6.304;2022-12-07T01:38:35;47.03;;;24.93;;
15812;SDS011;8007;51.404;6.304;2022-12-07T01:40:43;47.50;;;25.00;;
15812;SDS011;8007;51.404;6.304;2022-12-07T01:42:49;38.17;;;21.40;;
15812;SDS011;8007;51.404;6.304;2022-12-07T01:47:46;39.97;;;23.27;;
15812;SDS011;8007;51.404;6.304;2022-12-07T01:49:55;43.63;;;25.10;;
15812;SDS011;8007;51.404;6.304;2022-12-07T01:52:03;36.83;;;22.47;;
15812;SDS011;8007;51.404;6.304;2022-12-07T01:54:14;33.80;;;21.43;;
15812;SDS011;8007;51.404;6.304;2022-12-07T01:56:20;33.33;;;20.47;;
15812;SDS011;8007;51.404;6.304;2022-12-07T01:58:29;40.43;;;23.33;;
15812;SDS011;8007;51.404;6.304;2022-12-07T02:00:33;40.53;;;23.23;;
15812;SDS011;8007;51.404;6.304;2022-12-07T02:02:36;46.87;;;23.53;;
15812;SDS011;8007;51.404;6.304;2022-12-07T02:04:43;41.30;;;22.23;;
15812;SDS011;8007;51.404;6.304;2022-12-07T02:06:56;39.13;;;22.60;;
15812;SDS011;8007;51.404;6.304;2022-12-07T02:09:08;38.57;;;22.03;;
15812;SDS011;8007;51.404;6.304;2022-12-07T02:11:10;39.63;;;21.83;;
15812;SDS011;8007;51.404;6.304;2022-12-07T02:13:14;42.10;;;22.43;;
15812;SDS011;8007;51.404;6.304;2022-12-07T02:15:25;41.67;;;22.23;;
15812;SDS011;8007;51.404;6.304;2022-12-07T02:17:37;41.17;;;21.67;;
15812;SDS011;8007;51.404;6.304;2022-12-07T02:22:33;41.60;;;22.53;;
15812;SDS011;8007;51.404;6.304;2022-12-07T02:24:58;35.73;;;22.03;;
15812;SDS011;8007;51.404;6.304;2022-12-07T02:27:11;37.87;;;21.83;;
15812;SDS011;8007;51.404;6.304;2022-12-07T02:29:47;40.10;;;22.33;;
15812;SDS011;8007;51.404;6.304;2022-12-07T02:31:56;38.90;;;22.23;;
15812;SDS011;8007;51.404;6.304;2022-12-07T02:34:05;37.97;;;21.77;;
15812;SDS011;8007;51.404;6.304;2022-12-07T02:36:21;41.77;;;23.30;;
15812;SDS011;8007;51.404;6.304;2022-12-07T02:38:40;43.60;;;23.20;;
15812;SDS011;8007;51.404;6.304;2022-12-07T02:40:47;40.50;;;22.50;;
15812;SDS011;8007;51.404;6.304;2022-12-07T02:42:55;39.47;;;22.63;;
15812;SDS011;8007;51.404;6.304;2022-12-07T02:45:17;37.37;;;21.20;;
15812;SDS011;8007;51.404;6.304;2022-12-07T02:47:24;41.77;;;22.20;;
15812;SDS011;8007;51.404;6.304;2022-12-07T02:49:29;43.73;;;22.87;;
15812;SDS011;8007;51.404;6.304;2022-12-07T02:51:32;40.47;;;21.83;;
15812;SDS011;8007;51.404;6.304;2022-12-07T02:53:37;37.07;;;21.53;;
15812;SDS011;8007;51.404;6.304;2022-12-07T02:55:54;41.63;;;21.93;;
15812;SDS011;8007;51.404;6.304;2022-12-07T02:58:11;41.33;;;21.73;;
15812;SDS011;8007;51.404;6.304;2022-12-07T03:00:24;40.40;;;22.27;;
15812;SDS011;8007;51.404;6.304;2022-12-07T03:02:29;39.40;;;21.17;;
15812;SDS011;8007;51.404;6.304;2022-12-07T03:04:42;40.13;;;22.03;;
15812;SDS011;8007;51.404;6.304;2022-12-07T03:07:05;38.70;;;22.37;;
15812;SDS011;8007;51.404;6.304;2022-12-07T03:09:17;38.53;;;21.23;;
15812;SDS011;8007;51.404;6.304;2022-12-07T03:11:29;36.67;;;21.53;;
15812;SDS011;8007;51.404;6.304;2022-12-07T03:13:39;34.87;;;20.53;;
15812;SDS011;8007;51.404;6.304;2022-12-07T03:15:49;39.60;;;20.97;;
15812;SDS011;8007;51.404;6.304;2022-12-07T03:17:56;38.33;;;20.17;;
15812;SDS011;8007;51.404;6.304;2022-12-07T03:20:05;38.77;;;21.67;;
15812;SDS011;8007;51.404;6.304;2022-12-07T03:22:12;35.57;;;20.93;;
15812;SDS011;8007;51.404;6.304;2022-12-07T03:24:21;37.63;;;21.50;;
15812;SDS011;8007;51.404;6.304;2022-12-07T03:26:30;36.13;;;21.33;;
15812;SDS011;8007;51.404;6.304;2022-12-07T03:28:36;36.90;;;21.53;;
15812;SDS011;8007;51.404;6.304;2022-12-07T03:30:51;36.87;;;20.03;;
15812;SDS011;8007;51.404;6.304;2022-12-07T03:32:58;40.23;;;20.17;;
15812;SDS011;8007;51.404;6.304;2022-12-07T03:35:05;39.73;;;20.37;;
15812;SDS011;8007;51.404;6.304;2022-12-07T03:37:10;38.07;;;20.83;;
15812;SDS011;8007;51.404;6.304;2022-12-07T03:39:20;37.80;;;20.33;;
15812;SDS011;8007;51.404;6.304;2022-12-07T03:41:29;32.97;;;19.23;;
15812;SDS011;8007;51.404;6.304;2022-12-07T03:43:37;36.23;;;20.83;;
15812;SDS011;8007;51.404;6.304;2022-12-07T03:45:41;40.77;;;20.93;;
15812;SDS011;8007;51.404;6.304;2022-12-07T03:47:49;36.33;;;19.70;;
15812;SDS011;8007;51.404;6.304;2022-12-07T03:49:58;37.23;;;20.77;;
15812;SDS011;8007;51.404;6.304;2022-12-07T03:52:05;36.53;;;19.70;;
15812;SDS011;8007;51.404;6.304;2022-12-07T03:54:17;40.37;;;21.07;;
15812;SDS011;8007;51.404;6.304;2022-12-07T03:56:24;33.93;;;19.80;;
15812;SDS011;8007;51.404;6.304;2022-12-07T03:58:28;32.53;;;19.63;;
15812;SDS011;8007;51.404;6.304;2022-12-07T04:00:35;33.73;;;19.73;;
15812;SDS011;8007;51.404;6.304;2022-12-07T04:02:37;36.60;;;20.30;;
15812;SDS011;8007;51.404;6.304;2022-12-07T04:04:42;37.87;;;20.00;;
15812;SDS011;8007;51.404;6.304;2022-12-07T04:06:49;38.27;;;20.60;;
15812;SDS011;8007;51.404;6.304;2022-12-07T04:08:52;36.43;;;20.33;;
15812;SDS011;8007;51.404;6.304;2022-12-07T04:10:58;39.83;;;20.67;;
15812;SDS011;8007;51.404;6.304;2022-12-07T04:13:07;36.33;;;20.30;;
15812;SDS011;8007;51.404;6.304;2022-12-07T04:15:10;42.87;;;21.03;;
15812;SDS011;8007;51.404;6.304;2022-12-07T04:17:16;34.90;;;20.93;;
15812;SDS011;8007;51.404;6.304;2022-12-07T04:19:19;39.83;;;21.23;;
15812;SDS011;8007;51.404;6.304;2022-12-07T04:21:27;32.93;;;20.10;;
15812;SDS011;8007;51.404;6.304;2022-12-07T04:23:30;33.27;;;21.00;;
15812;SDS011;8007;51.404;6.304;2022-12-07T04:25:33;34.23;;;20.33;;
15812;SDS011;8007;51.404;6.304;2022-12-07T04:27:39;39.73;;;20.70;;
15812;SDS011;8007;51.404;6.304;2022-12-07T04:29:52;38.47;;;21.37;;
15812;SDS011;8007;51.404;6.304;2022-12-07T04:31:56;39.33;;;20.40;;
15812;SDS011;8007;51.404;6.304;2022-12-07T04:33:59;39.60;;;19.53;;
15812;SDS011;8007;51.404;6.304;2022-12-07T04:36:07;44.40;;;20.33;;
15812;SDS011;8007;51.404;6.304;2022-12-07T04:38:13;39.30;;;20.50;;
15812;SDS011;8007;51.404;6.304;2022-12-07T04:40:21;39.10;;;20.97;;
15812;SDS011;8007;51.404;6.304;2022-12-07T04:42:28;37.10;;;20.67;;
15812;SDS011;8007;51.404;6.304;2022-12-07T04:44:54;34.70;;;19.57;;
15812;SDS011;8007;51.404;6.304;2022-12-07T04:46:59;39.13;;;19.10;;
15812;SDS011;8007;51.404;6.304;2022-12-07T04:49:02;34.70;;;19.10;;
15812;SDS011;8007;51.404;6.304;2022-12-07T04:51:06;38.10;;;20.20;;
15812;SDS011;8007;51.404;6.304;2022-12-07T04:53:09;36.70;;;19.53;;
15812;SDS011;8007;51.404;6.304;2022-12-07T04:55:21;35.17;;;18.83;;
15812;SDS011;8007;51.404;6.304;2022-12-07T04:57:23;35.60;;;19.60;;
15812;SDS011;8007;51.404;6.304;2022-12-07T04:59:26;34.97;;;19.47;;
15812;SDS011;8007;51.404;6.304;2022-12-07T05:01:29;39.63;;;20.30;;
15812;SDS011;8007;51.404;6.304;2022-12-07T05:03:32;32.43;;;19.47;;
15812;SDS011;8007;51.404;6.304;2022-12-07T05:05:39;37.07;;;20.20;;
15812;SDS011;8007;51.404;6.304;2022-12-07T05:07:43;33.23;;;18.63;;
15812;SDS011;8007;51.404;6.304;2022-12-07T05:09:47;32.00;;;19.10;;
15812;SDS011;8007;51.404;6.304;2022-12-07T05:11:52;35.30;;;18.73;;
15812;SDS011;8007;51.404;6.304;2022-12-07T05:13:56;35.50;;;19.63;;
15812;SDS011;8007;51.404;6.304;2022-12-07T05:16:03;32.77;;;17.97;;
15812;SDS011;8007;51.404;6.304;2022-12-07T05:18:10;33.97;;;17.37;;
15812;SDS011;8007;51.404;6.304;2022-12-07T05:20:13;37.90;;;20.20;;
15812;SDS011;8007;51.404;6.304;2022-12-07T05:22:16;31.87;;;18.17;;
15812;SDS011;8007;51.404;6.304;2022-12-07T05:24:20;33.93;;;18.97;;
15812;SDS011;8007;51.404;6.304;2022-12-07T05:26:25;34.30;;;18.43;;
15812;SDS011;8007;51.404;6.304;2022-12-07T05:28:36;33.37;;;18.57;;
15812;SDS011;8007;51.404;6.304;2022-12-07T05:30:41;32.63;;;16.73;;
15812;SDS011;8007;51.404;6.304;2022-12-07T05:32:44;33.83;;;18.07;;
15812;SDS011;8007;51.404;6.304;2022-12-07T05:35:01;35.63;;;18.93;;
15812;SDS011;8007;51.404;6.304;2022-12-07T05:37:09;33.50;;;17.77;;
15812;SDS011;8007;51.404;6.304;2022-12-07T05:39:21;30.60;;;16.77;;
15812;SDS011;8007;51.404;6.304;2022-12-07T05:41:25;31.27;;;17.07;;
15812;SDS011;8007;51.404;6.304;2022-12-07T05:43:46;32.40;;;17.50;;
15812;SDS011;8007;51.404;6.304;2022-12-07T05:45:50;29.40;;;17.73;;
15812;SDS011;8007;51.404;6.304;2022-12-07T05:47:56;33.53;;;17.70;;
15812;SDS011;8007;51.404;6.304;2022-12-07T05:50:03;28.10;;;17.17;;
15812;SDS011;8007;51.404;6.304;2022-12-07T05:52:09;31.97;;;16.47;;
15812;SDS011;8007;51.404;6.304;2022-12-07T05:54:17;33.07;;;17.47;;
15812;SDS011;8007;51.404;6.304;2022-12-07T05:56:33;30.83;;;16.47;;
15812;SDS011;8007;51.404;6.304;2022-12-07T05:58:42;30.33;;;16.33;;
15812;SDS011;8007;51.404;6.304;2022-12-07T06:01:12;29.37;;;16.07;;
15812;SDS011;8007;51.404;6.304;2022-12-07T06:03:17;27.27;;;15.37;;
15812;SDS011;8007;51.404;6.304;2022-12-07T06:05:20;30.17;;;15.20;;
15812;SDS011;8007;51.404;6.304;2022-12-07T06:07:24;27.00;;;15.27;;
15812;SDS011;8007;51.404;6.304;2022-12-07T06:09:32;28.63;;;15.40;;
15812;SDS011;8007;51.404;6.304;2022-12-07T06:11:38;27.47;;;15.27;;
15812;SDS011;8007;51.404;6.304;2022-12-07T06:13:58;26.60;;;15.00;;
15812;SDS011;8007;51.404;6.304;2022-12-07T06:16:09;26.17;;;15.60;;
15812;SDS011;8007;51.404;6.304;2022-12-07T06:18:13;30.00;;;15.73;;
15812;SDS011;8007;51.404;6.304;2022-12-07T06:20:18;32.60;;;14.97;;
15812;SDS011;8007;51.404;6.304;2022-12-07T06:22:36;22.77;;;13.63;;
15812;SDS011;8007;51.404;6.304;2022-12-07T06:24:39;30.03;;;14.60;;
15812;SDS011;8007;51.404;6.304;2022-12-07T06:26:41;24.33;;;13.40;;
15812;SDS011;8007;51.404;6.304;2022-12-07T06:28:45;24.40;;;12.80;;
15812;SDS011;8007;51.404;6.304;2022-12-07T06:30:47;24.83;;;13.60;;
15812;SDS011;8007;51.404;6.304;2022-12-07T06:33:01;23.03;;;12.87;;
15812;SDS011;8007;51.404;6.304;2022-12-07T06:35:05;24.70;;;12.57;;
15812;SDS011;8007;51.404;6.304;2022-12-07T06:37:25;21.07;;;12.83;;
15812;SDS011;8007;51.404;6.304;2022-12-07T06:39:28;21.83;;;13.10;;
15812;SDS011;8007;51.404;6.304;2022-12-07T06:41:32;25.77;;;12.90;;
15812;SDS011;8007;51.404;6.304;2022-12-07T06:43:40;27.50;;;12.43;;
15812;SDS011;8007;51.404;6.304;2022-12-07T06:45:43;27.13;;;13.83;;
15812;SDS011;8007;51.404;6.304;2022-12-07T06:47:46;20.43;;;12.10;;
15812;SDS011;8007;51.404;6.304;2022-12-07T06:49:53;20.73;;;12.40;;
15812;SDS011;8007;51.404;6.304;2022-12-07T06:52:08;20.50;;;12.57;;
15812;SDS011;8007;51.404;6.304;2022-12-07T06:54:16;26.63;;;12.83;;
15812;SDS011;8007;51.404;6.304;2022-12-07T06:56:23;23.93;;;13.13;;
15812;SDS011;8007;51.404;6.304;2022-12-07T07:00:57;21.33;;;12.47;;
15812;SDS011;8007;51.404;6.304;2022-12-07T07:03:11;22.50;;;12.93;;
15812;SDS011;8007;51.404;6.304;2022-12-07T07:05:32;21.93;;;12.47;;
15812;SDS011;8007;51.404;6.304;2022-12-07T07:07:54;22.00;;;10.53;;
15812;SDS011;8007;51.404;6.304;2022-12-07T07:10:06;23.00;;;12.13;;
15812;SDS011;8007;51.404;6.304;2022-12-07T07:12:18;20.17;;;11.63;;
15812;SDS011;8007;51.404;6.304;2022-12-07T07:17:06;22.20;;;11.43;;
15812;SDS011;8007;51.404;6.304;2022-12-07T07:19:09;21.57;;;11.97;;
15812;SDS011;8007;51.404;6.304;2022-12-07T07:21:17;26.40;;;13.30;;
15812;SDS011;8007;51.404;6.304;2022-12-07T07:23:25;23.00;;;13.03;;
15812;SDS011;8007;51.404;6.304;2022-12-07T07:25:30;31.00;;;14.73;;
15812;SDS011;8007;51.404;6.304;2022-12-07T07:27:35;27.07;;;14.20;;
15812;SDS011;8007;51.404;6.304;2022-12-07T07:29:47;29.10;;;14.03;;
15812;SDS011;8007;51.404;6.304;2022-12-07T07:31:49;34.13;;;15.53;;
15812;SDS011;8007;51.404;6.304;2022-12-07T07:34:06;31.13;;;16.53;;
15812;SDS011;8007;51.404;6.304;2022-12-07T07:36:11;35.70;;;17.50;;
15812;SDS011;8007;51.404;6.304;2022-12-07T07:38:16;32.97;;;15.97;;
15812;SDS011;8007;51.404;6.304;2022-12-07T07:40:18;31.13;;;16.63;;
15812;SDS011;8007;51.404;6.304;2022-12-07T07:42:23;33.77;;;16.30;;
15812;SDS011;8007;51.404;6.304;2022-12-07T07:44:26;32.00;;;15.83;;
15812;SDS011;8007;51.404;6.304;2022-12-07T07:46:29;23.40;;;13.80;;
15812;SDS011;8007;51.404;6.304;2022-12-07T07:48:38;25.87;;;13.53;;
15812;SDS011;8007;51.404;6.304;2022-12-07T07:50:41;30.70;;;14.23;;
15812;SDS011;8007;51.404;6.304;2022-12-07T07:52:46;24.77;;;13.70;;
15812;SDS011;8007;51.404;6.304;2022-12-07T07:54:57;23.40;;;13.40;;
15812;SDS011;8007;51.404;6.304;2022-12-07T07:57:04;26.20;;;13.63;;
15812;SDS011;8007;51.404;6.304;2022-12-07T07:59:08;26.17;;;14.13;;
15812;SDS011;8007;51.404;6.304;2022-12-07T08:01:10;25.43;;;13.57;;
15812;SDS011;8007;51.404;6.304;2022-12-07T08:03:20;24.03;;;14.20;;
15812;SDS011;8007;51.404;6.304;2022-12-07T08:05:26;24.20;;;12.07;;
15812;SDS011;8007;51.404;6.304;2022-12-07T08:07:32;23.97;;;13.03;;
15812;SDS011;8007;51.404;6.304;2022-12-07T08:09:34;26.40;;;12.90;;
15812;SDS011;8007;51.404;6.304;2022-12-07T08:11:41;21.03;;;12.27;;
15812;SDS011;8007;51.404;6.304;2022-12-07T08:13:46;22.13;;;12.33;;
15812;SDS011;8007;51.404;6.304;2022-12-07T08:15:49;24.03;;;12.87;;
15812;SDS011;8007;51.404;6.304;2022-12-07T08:17:51;24.77;;;12.63;;
15812;SDS011;8007;51.404;6.304;2022-12-07T08:20:05;23.87;;;12.87;;
15812;SDS011;8007;51.404;6.304;2022-12-07T08:22:14;18.60;;;11.70;;
15812;SDS011;8007;51.404;6.304;2022-12-07T08:24:16;20.47;;;12.90;;
15812;SDS011;8007;51.404;6.304;2022-12-07T08:26:22;24.03;;;12.27;;
15812;SDS011;8007;51.404;6.304;2022-12-07T08:28:30;20.93;;;11.97;;
15812;SDS011;8007;51.404;6.304;2022-12-07T08:30:39;18.63;;;11.67;;
15812;SDS011;8007;51.404;6.304;2022-12-07T08:32:44;18.00;;;12.00;;
15812;SDS011;8007;51.404;6.304;2022-12-07T08:35:05;20.07;;;12.60;;
15812;SDS011;8007;51.404;6.304;2022-12-07T08:37:08;23.20;;;12.33;;
15812;SDS011;8007;51.404;6.304;2022-12-07T08:39:13;20.47;;;12.20;;
15812;SDS011;8007;51.404;6.304;2022-12-07T08:41:18;25.00;;;12.93;;
15812;SDS011;8007;51.404;6.304;2022-12-07T08:43:22;22.97;;;13.30;;
15812;SDS011;8007;51.404;6.304;2022-12-07T08:45:27;21.60;;;13.27;;
15812;SDS011;8007;51.404;6.304;2022-12-07T08:47:36;22.07;;;12.90;;
15812;SDS011;8007;51.404;6.304;2022-12-07T08:49:46;19.67;;;12.60;;
15812;SDS011;8007;51.404;6.304;2022-12-07T08:51:53;22.43;;;11.90;;
15812;SDS011;8007;51.404;6.304;2022-12-07T08:53:57;23.80;;;13.43;;
15812;SDS011;8007;51.404;6.304;2022-12-07T08:56:01;21.13;;;12.90;;
15812;SDS011;8007;51.404;6.304;2022-12-07T08:58:05;21.27;;;12.87;;
15812;SDS011;8007;51.404;6.304;2022-12-07T09:00:21;26.73;;;15.17;;
15812;SDS011;8007;51.404;6.304;2022-12-07T09:04:58;29.17;;;16.63;;
15812;SDS011;8007;51.404;6.304;2022-12-07T09:07:03;32.73;;;17.83;;
15812;SDS011;8007;51.404;6.304;2022-12-07T09:09:08;37.57;;;18.87;;
15812;SDS011;8007;51.404;6.304;2022-12-07T09:11:15;34.77;;;19.60;;
15812;SDS011;8007;51.404;6.304;2022-12-07T09:13:38;45.67;;;22.17;;
15812;SDS011;8007;51.404;6.304;2022-12-07T09:15:41;42.07;;;21.93;;
15812;SDS011;8007;51.404;6.304;2022-12-07T09:17:51;40.30;;;22.33;;
15812;SDS011;8007;51.404;6.304;2022-12-07T09:19:54;40.63;;;22.57;;
15812;SDS011;8007;51.404;6.304;2022-12-07T09:22:08;44.03;;;25.00;;
15812;SDS011;8007;51.404;6.304;2022-12-07T09:24:15;49.10;;;28.23;;
15812;SDS011;8007;51.404;6.304;2022-12-07T09:26:22;60.37;;;31.47;;
15812;SDS011;8007;51.404;6.304;2022-12-07T09:28:26;63.33;;;32.20;;
15812;SDS011;8007;51.404;6.304;2022-12-07T09:30:35;58.87;;;34.10;;
15812;SDS011;8007;51.404;6.304;2022-12-07T09:32:54;59.03;;;33.30;;
15812;SDS011;8007;51.404;6.304;2022-12-07T09:34:59;54.47;;;29.90;;
15812;SDS011;8007;51.404;6.304;2022-12-07T09:37:09;54.30;;;28.93;;
15812;SDS011;8007;51.404;6.304;2022-12-07T09:39:16;46.07;;;26.87;;
15812;SDS011;8007;51.404;6.304;2022-12-07T09:41:21;46.37;;;26.07;;
15812;SDS011;8007;51.404;6.304;2022-12-07T09:43:25;37.00;;;22.70;;
15812;SDS011;8007;51.404;6.304;2022-12-07T09:45:33;32.80;;;19.67;;
15812;SDS011;8007;51.404;6.304;2022-12-07T09:47:37;32.67;;;19.70;;
15812;SDS011;8007;51.404;6.304;2022-12-07T09:49:45;26.73;;;17.27;;
15812;SDS011;8007;51.404;6.304;2022-12-07T09:51:55;25.37;;;14.60;;
15812;SDS011;8007;51.404;6.304;2022-12-07T09:54:07;23.63;;;13.20;;
15812;SDS011;8007;51.404;6.304;2022-12-07T09:56:12;21.33;;;12.77;;
15812;SDS011;8007;51.404;6.304;2022-12-07T09:58:29;22.77;;;11.70;;
15812;SDS011;8007;51.404;6.304;2022-12-07T10:00:40;19.03;;;11.53;;
15812;SDS011;8007;51.404;6.304;2022-12-07T10:02:50;14.57;;;10.17;;
15812;SDS011;8007;51.404;6.304;2022-12-07T10:05:02;16.93;;;9.90;;
15812;SDS011;8007;51.404;6.304;2022-12-07T10:07:07;11.47;;;8.77;;
15812;SDS011;8007;51.404;6.304;2022-12-07T10:09:10;13.80;;;8.80;;
15812;SDS011;8007;51.404;6.304;2022-12-07T10:11:16;13.60;;;9.87;;
15812;SDS011;8007;51.404;6.304;2022-12-07T10:13:34;11.93;;;8.90;;
15812;SDS011;8007;51.404;6.304;2022-12-07T10:15:53;19.33;;;9.53;;
15812;SDS011;8007;51.404;6.304;2022-12-07T10:18:01;13.73;;;9.20;;
15812;SDS011;8007;51.404;6.304;2022-12-07T10:20:20;11.53;;;8.80;;
15812;SDS011;8007;51.404;6.304;2022-12-07T10:22:24;14.77;;;10.00;;
15812;SDS011;8007;51.404;6.304;2022-12-07T10:24:30;13.97;;;8.60;;
15812;SDS011;8007;51.404;6.304;2022-12-07T10:26:40;12.70;;;7.40;;
15812;SDS011;8007;51.404;6.304;2022-12-07T10:28:51;12.37;;;8.17;;
15812;SDS011;8007;51.404;6.304;2022-12-07T10:31:15;13.40;;;7.50;;
15812;SDS011;8007;51.404;6.304;2022-12-07T10:33:35;13.07;;;7.47;;
15812;SDS011;8007;51.404;6.304;2022-12-07T10:35:42;11.60;;;7.90;;
15812;SDS011;8007;51.404;6.304;2022-12-07T10:37:46;12.90;;;7.87;;
15812;SDS011;8007;51.404;6.304;2022-12-07T10:39:49;15.43;;;7.83;;
15812;SDS011;8007;51.404;6.304;2022-12-07T10:41:57;14.93;;;7.00;;
15812;SDS011;8007;51.404;6.304;2022-12-07T10:44:01;13.40;;;7.23;;
15812;SDS011;8007;51.404;6.304;2022-12-07T10:48:55;11.70;;;6.57;;
15812;SDS011;8007;51.404;6.304;2022-12-07T10:51:07;12.10;;;6.73;;
15812;SDS011;8007;51.404;6.304;2022-12-07T10:53:21;11.30;;;6.87;;
15812;SDS011;8007;51.404;6.304;2022-12-07T10:56:06;17.20;;;6.30;;
15812;SDS011;8007;51.404;6.304;2022-12-07T10:58:41;9.40;;;6.43;;
15812;SDS011;8007;51.404;6.304;2022-12-07T11:00:51;10.13;;;6.40;;
15812;SDS011;8007;51.404;6.304;2022-12-07T11:03:12;9.03;;;6.43;;
15812;SDS011;8007;51.404;6.304;2022-12-07T11:05:32;8.50;;;5.93;;
15812;SDS011;8007;51.404;6.304;2022-12-07T11:07:45;12.07;;;5.90;;
15812;SDS011;8007;51.404;6.304;2022-12-07T11:09:57;10.90;;;6.33;;
15812;SDS011;8007;51.404;6.304;2022-12-07T11:12:05;8.43;;;5.30;;
15812;SDS011;8007;51.404;6.304;2022-12-07T11:14:15;12.63;;;5.60;;
15812;SDS011;8007;51.404;6.304;2022-12-07T11:16:27;10.27;;;5.87;;
15812;SDS011;8007;51.404;6.304;2022-12-07T11:18:36;14.23;;;5.50;;
15812;SDS011;8007;51.404;6.304;2022-12-07T11:20:56;7.43;;;5.13;;
15812;SDS011;8007;51.404;6.304;2022-12-07T11:23:13;9.70;;;5.23;;
15812;SDS011;8007;51.404;6.304;2022-12-07T11:25:23;13.57;;;5.50;;
15812;SDS011;8007;51.404;6.304;2022-12-07T11:27:35;11.00;;;5.70;;
15812;SDS011;8007;51.404;6.304;2022-12-07T11:30:06;9.73;;;5.33;;
15812;SDS011;8007;51.404;6.304;2022-12-07T11:32:18;9.97;;;5.53;;
15812;SDS011;8007;51.404;6.304;2022-12-07T11:34:29;9.73;;;5.60;;
15812;SDS011;8007;51.404;6.304;2022-12-07T11:36:51;8.60;;;4.83;;
15812;SDS011;8007;51.404;6.304;2022-12-07T11:39:01;9.90;;;5.40;;
15812;SDS011;8007;51.404;6.304;2022-12-07T11:41:11;8.73;;;5.00;;
15812;SDS011;8007;51.404;6.304;2022-12-07T11:43:18;11.43;;;4.97;;
15812;SDS011;8007;51.404;6.304;2022-12-07T11:45:23;9.50;;;5.67;;
15812;SDS011;8007;51.404;6.304;2022-12-07T11:47:29;9.93;;;5.23;;
15812;SDS011;8007;51.404;6.304;2022-12-07T11:49:49;10.20;;;4.97;;
15812;SDS011;8007;51.404;6.304;2022-12-07T11:51:57;15.47;;;6.43;;
15812;SDS011;8007;51.404;6.304;2022-12-07T11:54:05;9.03;;;4.63;;
15812;SDS011;8007;51.404;6.304;2022-12-07T11:56:16;11.83;;;4.30;;
15812;SDS011;8007;51.404;6.304;2022-12-07T11:58:24;10.10;;;4.60;;
15812;SDS011;8007;51.404;6.304;2022-12-07T12:00:47;6.57;;;3.63;;
15812;SDS011;8007;51.404;6.304;2022-12-07T12:02:55;9.13;;;3.97;;
15812;SDS011;8007;51.404;6.304;2022-12-07T12:05:05;6.50;;;4.13;;
15812;SDS011;8007;51.404;6.304;2022-12-07T12:07:15;6.30;;;4.10;;
15812;SDS011;8007;51.404;6.304;2022-12-07T12:09:23;9.73;;;4.67;;
15812;SDS011;8007;51.404;6.304;2022-12-07T12:11:35;9.63;;;4.43;;
15812;SDS011;8007;51.404;6.304;2022-12-07T12:13:54;10.20;;;4.00;;
15812;SDS011;8007;51.404;6.304;2022-12-07T12:16:17;5.73;;;3.83;;
15812;SDS011;8007;51.404;6.304;2022-12-07T12:18:35;8.10;;;4.00;;
15812;SDS011;8007;51.404;6.304;2022-12-07T12:20:43;7.57;;;3.67;;
15812;SDS011;8007;51.404;6.304;2022-12-07T12:22:48;6.27;;;3.93;;
15812;SDS011;8007;51.404;6.304;2022-12-07T12:24:56;9.03;;;4.10;;
15812;SDS011;8007;51.404;6.304;2022-12-07T12:27:00;8.63;;;4.00;;
15812;SDS011;8007;51.404;6.304;2022-12-07T12:29:05;5.83;;;3.80;;
15812;SDS011;8007;51.404;6.304;2022-12-07T12:31:30;5.30;;;3.60;;
15812;SDS011;8007;51.404;6.304;2022-12-07T12:33:38;6.67;;;3.17;;
15812;SDS011;8007;51.404;6.304;2022-12-07T12:35:48;8.97;;;3.50;;
15812;SDS011;8007;51.404;6.304;2022-12-07T12:38:48;6.77;;;3.73;;
15812;SDS011;8007;51.404;6.304;2022-12-07T12:40:51;7.57;;;3.10;;
15812;SDS011;8007;51.404;6.304;2022-12-07T12:42:55;5.77;;;3.20;;
15812;SDS011;8007;51.404;6.304;2022-12-07T12:45:02;14.10;;;4.73;;
15812;SDS011;8007;51.404;6.304;2022-12-07T12:50:11;9.63;;;3.60;;
15812;SDS011;8007;51.404;6.304;2022-12-07T12:54:58;5.20;;;3.23;;
15812;SDS011;8007;51.404;6.304;2022-12-07T12:57:13;6.93;;;3.70;;
15812;SDS011;8007;51.404;6.304;2022-12-07T12:59:25;4.63;;;3.27;;
15812;SDS011;8007;51.404;6.304;2022-12-07T13:01:37;6.77;;;3.87;;
15812;SDS011;8007;51.404;6.304;2022-12-07T13:03:45;7.27;;;3.37;;
15812;SDS011;8007;51.404;6.304;2022-12-07T13:08:20;12.50;;;4.70;;
15812;SDS011;8007;51.404;6.304;2022-12-07T13:10:26;10.47;;;4.60;;
15812;SDS011;8007;51.404;6.304;2022-12-07T13:12:36;9.57;;;4.30;;